Time;durP1;ratioP1;P1;durP2;ratioP2;P2;SDS_P1;SDS_P2;PMS_P1;PMS_P2;Temp;Humidity;BMP_temperature;BMP_pressure;BME280_temperature;BME280_humidity;BME280_pressure;Samples;Min_cycle;Max_cycle;Signal;HPM_P1;HPM_P2
2021/09/08 00:02:04;;;;;;;15.73;7.28;;;;;;;14.57;80.24;96914.97;5002749;28;20075;-62
2021/09/08 00:04:30;;;;;;;12.23;7.80;;;;;;;14.50;80.32;96912.19;5004390;28;20155;-64
2021/09/08 00:06:55;;;;;;;12.02;7.95;;;;;;;14.42;81.03;96910.56;5007134;28;20574;-64
2021/09/08 00:09:21;;;;;;;12.75;7.65;;;;;;;14.46;80.96;96901.13;5002061;28;20042;-63
2021/09/08 00:11:47;;;;;;;10.98;7.45;;;;;;;14.44;81.13;96902.69;5003122;28;20042;-63
2021/09/08 00:14:12;;;;;;;14.00;8.23;;;;;;;14.32;81.49;96901.84;4999662;28;20053;-63
2021/09/08 00:16:38;;;;;;;15.85;7.32;;;;;;;14.20;81.45;96902.19;5004317;28;20196;-63
2021/09/08 00:19:03;;;;;;;11.25;7.38;;;;;;;14.04;81.89;96896.97;5005101;28;20430;-62
2021/09/08 00:21:29;;;;;;;12.70;6.75;;;;;;;13.99;82.71;96900.13;5005405;28;20664;-64
2021/09/08 00:23:54;;;;;;;13.30;7.13;;;;;;;13.88;83.30;96897.28;5000133;28;20705;-64
2021/09/08 00:26:20;;;;;;;14.75;8.00;;;;;;;13.77;84.13;96890.91;4978588;28;20053;-64
2021/09/08 00:28:45;;;;;;;12.35;7.43;;;;;;;13.65;83.97;96897.53;4984979;28;20084;-64
2021/09/08 00:31:11;;;;;;;14.20;7.93;;;;;;;13.42;85.39;96899.69;4978470;28;20062;-64
2021/09/08 00:33:36;;;;;;;10.80;7.15;;;;;;;13.15;87.20;96897.06;4985892;28;20046;-64
2021/09/08 00:36:01;;;;;;;12.90;7.72;;;;;;;12.95;87.75;96897.28;4985437;28;20046;-64
2021/09/08 00:38:27;;;;;;;12.95;7.75;;;;;;;12.89;88.50;96884.22;4985093;28;20042;-63
2021/09/08 00:40:56;;;;;;;13.98;8.18;;;;;;;12.93;89.02;96880.38;5007675;28;20046;-63
2021/09/08 00:43:22;;;;;;;13.20;8.17;;;;;;;12.92;88.92;96878.00;4989199;28;20789;-64
2021/09/08 00:45:55;;;;;;;11.05;7.70;;;;;;;12.97;89.88;96881.19;5011877;28;20702;-63
2021/09/08 00:48:21;;;;;;;11.75;7.80;;;;;;;12.98;90.25;96876.47;5005277;28;20046;-64
2021/09/08 00:50:48;;;;;;;10.80;7.30;;;;;;;12.99;90.07;96870.59;5006663;28;20506;-62
2021/09/08 00:53:16;;;;;;;11.18;6.88;;;;;;;13.03;90.04;96872.59;4999333;28;20042;-64
2021/09/08 00:55:44;;;;;;;11.23;7.32;;;;;;;13.05;89.78;96873.00;5006948;28;20402;-62
2021/09/08 00:58:10;;;;;;;12.82;7.78;;;;;;;13.05;89.33;96871.03;4998242;28;20038;-63
2021/09/08 01:00:36;;;;;;;12.50;7.68;;;;;;;13.02;89.96;96869.06;5003669;28;20457;-63
2021/09/08 01:03:02;;;;;;;18.73;8.27;;;;;;;12.88;89.27;96863.44;4998052;28;20034;-62
2021/09/08 01:05:28;;;;;;;12.02;7.30;;;;;;;12.67;89.68;96875.75;5001843;28;20049;-63
2021/09/08 01:07:53;;;;;;;13.23;7.40;;;;;;;12.41;92.60;96874.69;5003967;28;20442;-63
2021/09/08 01:10:19;;;;;;;15.77;7.60;;;;;;;12.32;93.35;96878.91;5001291;28;20041;-62
2021/09/08 01:12:44;;;;;;;13.77;7.50;;;;;;;12.32;93.49;96870.66;4997350;28;20077;-63
2021/09/08 01:15:13;;;;;;;14.57;8.73;;;;;;;12.40;93.51;96864.88;4990252;28;20482;-63
2021/09/08 01:17:38;;;;;;;19.65;8.77;;;;;;;12.43;92.42;96869.63;4994449;28;20426;-63
2021/09/08 01:20:06;;;;;;;15.40;8.32;;;;;;;12.37;93.54;96865.63;4998203;28;20048;-62
2021/09/08 01:22:32;;;;;;;12.27;7.75;;;;;;;12.34;93.19;96873.81;5002997;28;20144;-63
2021/09/08 01:24:58;;;;;;;12.95;8.63;;;;;;;12.29;93.77;96874.94;5004601;28;20041;-63
2021/09/08 01:27:25;;;;;;;12.02;7.93;;;;;;;12.16;93.92;96868.91;4992513;28;20057;-63
2021/09/08 01:29:50;;;;;;;11.45;8.65;;;;;;;12.09;93.93;96874.28;5001577;28;20037;-62
2021/09/08 01:32:16;;;;;;;11.02;7.05;;;;;;;12.14;94.32;96860.25;4998143;28;20045;-62
2021/09/08 01:34:41;;;;;;;15.23;8.00;;;;;;;12.13;94.67;96864.13;5000931;28;20057;-62
2021/09/08 01:37:08;;;;;;;14.73;8.68;;;;;;;12.12;95.49;96870.81;5010740;28;20107;-62
2021/09/08 01:39:34;;;;;;;13.82;8.00;;;;;;;12.27;94.83;96863.53;5010441;28;20056;-64
2021/09/08 01:41:59;;;;;;;13.75;7.22;;;;;;;12.23;94.31;96865.47;5009962;28;20041;-63
2021/09/08 01:44:25;;;;;;;15.07;8.30;;;;;;;12.31;94.58;96864.38;4994177;28;20050;-63
2021/09/08 01:46:53;;;;;;;14.50;8.00;;;;;;;12.29;93.30;96866.69;4995297;28;20103;-63
2021/09/08 01:49:19;;;;;;;15.38;8.00;;;;;;;12.23;93.49;96868.19;5012236;28;20068;-64
2021/09/08 01:51:45;;;;;;;15.05;8.32;;;;;;;12.23;94.13;96868.19;5020949;28;20038;-63
2021/09/08 01:54:11;;;;;;;13.55;7.43;;;;;;;12.14;94.09;96868.47;4994248;28;20050;-61
2021/09/08 01:56:37;;;;;;;14.48;8.55;;;;;;;12.15;94.43;96869.25;4997536;28;20046;-62
2021/09/08 01:59:03;;;;;;;13.82;8.05;;;;;;;12.22;94.89;96867.38;5000776;28;20041;-61
2021/09/08 02:01:28;;;;;;;14.10;9.05;;;;;;;12.01;94.20;96875.34;4995483;28;20080;-64
2021/09/08 02:03:53;;;;;;;16.75;10.55;;;;;;;11.96;96.30;96871.00;4996836;28;20042;-64
2021/09/08 02:06:23;;;;;;;17.55;8.65;;;;;;;11.79;96.38;96875.06;4992748;28;20054;-61
2021/09/08 02:08:50;;;;;;;16.52;9.45;;;;;;;11.79;97.36;96869.56;4995446;28;20188;-62
2021/09/08 02:11:16;;;;;;;19.60;9.73;;;;;;;11.75;96.21;96871.44;5005067;28;20045;-64
2021/09/08 02:13:41;;;;;;;14.15;9.23;;;;;;;11.78;97.07;96865.22;5013818;28;20073;-64
2021/09/08 02:16:07;;;;;;;20.40;10.73;;;;;;;11.69;97.21;96861.19;4995225;28;20041;-63
2021/09/08 02:18:33;;;;;;;15.00;9.82;;;;;;;11.65;97.86;96867.41;4999075;28;20053;-64
2021/09/08 02:20:58;;;;;;;16.40;10.30;;;;;;;11.66;97.78;96855.25;5001800;28;20042;-62
2021/09/08 02:23:24;;;;;;;17.48;10.43;;;;;;;11.53;97.70;96858.59;4995634;28;20403;-62
2021/09/08 02:25:49;;;;;;;14.55;9.40;;;;;;;11.54;98.71;96860.16;4999632;28;20063;-63
2021/09/08 02:28:20;;;;;;;15.02;9.57;;;;;;;11.52;99.09;96857.00;4993407;28;20049;-63
2021/09/08 02:30:45;;;;;;;17.60;9.02;;;;;;;11.56;98.77;96860.56;4991792;28;20046;-63
2021/09/08 02:33:11;;;;;;;15.38;9.35;;;;;;;11.60;98.86;96858.69;4988915;28;20047;-63
2021/09/08 02:35:36;;;;;;;14.27;9.27;;;;;;;11.58;98.17;96848.09;5000460;28;20052;-63
2021/09/08 02:38:02;;;;;;;15.55;9.57;;;;;;;11.65;98.15;96859.16;4996515;28;20160;-63
2021/09/08 02:40:27;;;;;;;16.42;9.57;;;;;;;11.68;97.88;96849.38;4994887;28;20049;-63
2021/09/08 02:42:52;;;;;;;16.17;10.27;;;;;;;11.52;97.50;96855.03;4995087;28;20034;-63
2021/09/08 02:45:18;;;;;;;13.60;9.18;;;;;;;11.48;97.63;96843.22;4997543;28;20466;-64
2021/09/08 02:47:43;;;;;;;14.68;9.23;;;;;;;11.28;99.03;96845.28;4990888;28;20450;-63
2021/09/08 02:50:09;;;;;;;15.05;8.38;;;;;;;11.36;99.37;96851.66;4996689;28;20100;-63
2021/09/08 02:52:35;;;;;;;19.25;9.43;;;;;;;11.42;99.11;96850.97;4994162;28;20054;-62
2021/09/08 02:55:00;;;;;;;14.45;9.20;;;;;;;11.41;98.52;96848.59;5000948;28;20076;-63
2021/09/08 02:57:26;;;;;;;12.85;8.52;;;;;;;11.39;99.08;96843.47;4996095;28;20042;-62
2021/09/08 02:59:51;;;;;;;16.50;9.57;;;;;;;11.36;99.08;96846.16;5005031;28;20072;-63
2021/09/08 03:02:16;;;;;;;15.85;9.60;;;;;;;11.34;99.03;96848.50;4993180;28;20042;-64
2021/09/08 03:04:42;;;;;;;15.95;9.88;;;;;;;11.32;99.20;96846.09;4991188;28;20138;-65
2021/09/08 03:07:07;;;;;;;17.67;9.85;;;;;;;11.25;99.04;96843.25;4987437;28;20070;-62
2021/09/08 03:09:33;;;;;;;18.95;10.45;;;;;;;11.19;99.02;96839.25;4998053;28;20050;-66
2021/09/08 03:11:58;;;;;;;14.32;9.13;;;;;;;11.28;100.00;96837.81;4988955;28;20050;-64
2021/09/08 03:14:23;;;;;;;16.08;10.43;;;;;;;11.23;99.65;96834.59;4996056;28;20300;-63
2021/09/08 03:16:49;;;;;;;14.48;9.77;;;;;;;11.17;99.36;96841.56;5001860;28;20129;-64
2021/09/08 03:19:14;;;;;;;18.58;10.70;;;;;;;10.99;100.00;96842.06;4997147;28;20091;-62
2021/09/08 03:21:40;;;;;;;16.75;10.10;;;;;;;10.88;100.00;96843.84;5001203;28;20057;-64
2021/09/08 03:24:05;;;;;;;16.98;10.35;;;;;;;10.65;100.00;96847.31;4988726;28;20042;-62
2021/09/08 03:26:31;;;;;;;20.25;10.90;;;;;;;10.41;100.00;96844.94;4998473;28;20494;-64
2021/09/08 03:28:56;;;;;;;16.30;10.02;;;;;;;10.27;100.00;96851.66;5001654;28;20391;-63
2021/09/08 03:31:21;;;;;;;17.05;10.77;;;;;;;10.15;100.00;96849.06;4993558;28;20149;-63
2021/09/08 03:33:47;;;;;;;17.20;10.38;;;;;;;10.12;100.00;96844.34;4993196;28;20112;-64
2021/09/08 03:36:12;;;;;;;17.77;11.10;;;;;;;10.16;100.00;96850.66;4995737;28;20376;-63
2021/09/08 03:38:38;;;;;;;17.58;11.30;;;;;;;10.26;100.00;96847.38;5001084;28;20592;-64
2021/09/08 03:41:03;;;;;;;17.83;10.75;;;;;;;10.24;100.00;96852.38;4995618;28;20041;-62
2021/09/08 03:43:29;;;;;;;18.25;11.88;;;;;;;10.40;100.00;96846.88;4999640;28;20125;-63
2021/09/08 03:45:54;;;;;;;17.88;10.23;;;;;;;10.52;100.00;96845.91;5000190;28;20046;-64
2021/09/08 03:48:20;;;;;;;15.07;10.02;;;;;;;10.60;100.00;96844.09;4996164;28;20038;-64
2021/09/08 03:50:45;;;;;;;17.50;10.77;;;;;;;10.56;100.00;96843.25;5000980;28;20080;-62
2021/09/08 03:53:10;;;;;;;14.90;10.05;;;;;;;10.44;100.00;96836.78;5006969;28;20077;-62
2021/09/08 03:55:36;;;;;;;18.13;10.18;;;;;;;10.49;100.00;96844.69;5004632;28;20046;-65
2021/09/08 03:58:01;;;;;;;15.00;10.18;;;;;;;10.40;100.00;96837.88;5000336;28;20038;-62
2021/09/08 04:00:27;;;;;;;22.02;11.15;;;;;;;10.36;100.00;96837.00;4995614;28;20042;-65
2021/09/08 04:02:52;;;;;;;19.65;10.85;;;;;;;10.37;100.00;96838.56;4994485;28;20034;-64
2021/09/08 04:05:18;;;;;;;17.23;11.00;;;;;;;10.21;100.00;96836.69;4994657;28;20559;-64
2021/09/08 04:07:43;;;;;;;18.08;11.57;;;;;;;10.07;100.00;96831.72;5002021;28;20133;-64
2021/09/08 04:10:09;;;;;;;23.17;11.95;;;;;;;10.07;100.00;96828.97;4993147;28;20132;-64
2021/09/08 04:12:35;;;;;;;18.08;11.20;;;;;;;10.04;100.00;96832.44;5000861;28;20141;-64
2021/09/08 04:15:00;;;;;;;22.30;12.63;;;;;;;10.04;100.00;96828.91;4998240;28;20129;-64
2021/09/08 04:17:25;;;;;;;20.23;11.80;;;;;;;9.94;100.00;96830.28;4993458;28;20041;-63
2021/09/08 04:19:51;;;;;;;17.88;11.75;;;;;;;9.94;100.00;96827.56;5001110;28;20038;-64
2021/09/08 04:22:17;;;;;;;19.73;11.38;;;;;;;10.05;100.00;96830.50;4995349;28;20042;-65
2021/09/08 04:24:42;;;;;;;17.17;11.13;;;;;;;10.16;100.00;96826.03;4999260;28;20049;-64
2021/09/08 04:27:08;;;;;;;18.77;11.25;;;;;;;10.23;100.00;96831.66;4986497;28;20088;-62
2021/09/08 04:29:33;;;;;;;18.70;10.98;;;;;;;10.31;100.00;96829.88;4999205;28;20037;-65
2021/09/08 04:31:59;;;;;;;19.00;10.98;;;;;;;10.29;100.00;96835.66;5002910;28;20383;-64
2021/09/08 04:34:24;;;;;;;18.02;11.55;;;;;;;10.19;100.00;96828.06;4999516;28;20042;-64
2021/09/08 04:36:49;;;;;;;22.50;12.60;;;;;;;10.02;100.00;96831.22;5006373;28;20034;-65
2021/09/08 04:39:15;;;;;;;17.92;11.00;;;;;;;9.85;100.00;96825.03;4999341;28;20038;-65
2021/09/08 04:41:40;;;;;;;15.93;10.57;;;;;;;9.85;100.00;96827.75;5013009;28;20045;-65
2021/09/08 04:44:05;;;;;;;15.95;10.55;;;;;;;9.91;100.00;96831.00;5009611;28;20041;-66
2021/09/08 04:46:31;;;;;;;21.13;12.32;;;;;;;10.03;100.00;96827.31;5007056;28;20053;-64
2021/09/08 04:48:57;;;;;;;26.10;12.32;;;;;;;10.02;100.00;96825.75;5004470;28;20490;-65
2021/09/08 04:51:22;;;;;;;19.80;11.18;;;;;;;9.89;100.00;96823.16;4990221;28;20058;-66
2021/09/08 04:53:48;;;;;;;21.25;11.85;;;;;;;9.86;100.00;96829.31;5003034;28;20486;-66
2021/09/08 04:56:13;;;;;;;22.33;12.35;;;;;;;9.84;100.00;96828.09;4995207;28;20046;-65
2021/09/08 04:58:39;;;;;;;19.27;11.77;;;;;;;9.75;100.00;96828.31;4995230;28;20045;-64
2021/09/08 05:01:04;;;;;;;21.02;11.80;;;;;;;9.85;100.00;96830.50;4993938;28;20054;-63
2021/09/08 05:03:32;;;;;;;20.77;11.43;;;;;;;9.99;100.00;96824.50;5000230;28;20054;-65
2021/09/08 05:05:57;;;;;;;21.38;12.23;;;;;;;10.13;100.00;96830.28;5004453;28;20042;-65
2021/09/08 05:08:22;;;;;;;18.73;11.85;;;;;;;10.25;100.00;96829.34;4997600;28;20491;-65
2021/09/08 05:10:48;;;;;;;19.65;11.80;;;;;;;10.41;100.00;96823.81;4999701;28;20398;-64
2021/09/08 05:13:13;;;;;;;16.00;10.85;;;;;;;10.51;100.00;96827.91;4994258;28;20045;-64
2021/09/08 05:15:39;;;;;;;16.73;10.70;;;;;;;10.67;100.00;96836.81;5003801;28;20141;-63
2021/09/08 05:18:04;;;;;;;20.33;11.50;;;;;;;11.19;100.00;96823.59;4999571;28;20401;-65
2021/09/08 05:20:30;;;;;;;15.52;9.98;;;;;;;11.78;97.66;96831.50;5002059;28;20224;-64
2021/09/08 05:22:55;;;;;;;15.50;8.95;;;;;;;12.52;92.94;96830.88;4994586;28;20042;-64
2021/09/08 05:25:20;;;;;;;16.08;8.82;;;;;;;13.06;89.56;96836.09;4997526;28;20045;-64
2021/09/08 05:27:46;;;;;;;14.25;8.70;;;;;;;14.02;83.92;96826.94;5002937;28;20080;-65
2021/09/08 05:30:11;;;;;;;14.15;8.73;;;;;;;14.58;78.60;96839.38;4997187;28;20038;-65
2021/09/08 05:32:37;;;;;;;13.07;8.18;;;;;;;14.36;79.42;96837.72;5001601;28;20052;-64
2021/09/08 05:35:03;;;;;;;14.95;8.25;;;;;;;14.80;79.09;96837.47;4999391;28;20041;-66
2021/09/08 05:37:28;;;;;;;16.60;9.80;;;;;;;14.75;77.29;96846.13;4999544;28;20505;-64
2021/09/08 05:39:53;;;;;;;14.23;8.75;;;;;;;14.71;78.54;96846.13;4998050;28;20038;-63
2021/09/08 05:42:19;;;;;;;15.27;9.65;;;;;;;14.65;78.41;96844.13;5003496;28;20471;-65
2021/09/08 05:44:44;;;;;;;14.00;9.05;;;;;;;14.87;77.26;96844.97;5004117;28;20042;-65
2021/09/08 05:47:10;;;;;;;11.27;7.53;;;;;;;15.50;74.90;96845.38;4995544;28;20132;-64
2021/09/08 05:49:35;;;;;;;17.52;9.32;;;;;;;15.96;72.92;96843.78;4994087;28;20084;-66
2021/09/08 05:52:02;;;;;;;17.10;8.23;;;;;;;16.54;71.77;96845.13;4997226;28;20045;-65
2021/09/08 05:54:28;;;;;;;16.58;9.07;;;;;;;17.35;67.72;96847.78;4999033;28;20052;-65
2021/09/08 05:56:53;;;;;;;20.50;9.05;;;;;;;17.86;65.97;96844.59;5014243;28;20113;-65
2021/09/08 05:59:19;;;;;;;16.67;8.75;;;;;;;18.31;64.13;96838.97;5017079;28;20042;-65
2021/09/08 06:01:44;;;;;;;13.73;8.65;;;;;;;18.64;62.89;96840.13;5006064;28;20466;-63
2021/09/08 06:04:09;;;;;;;16.65;8.35;;;;;;;19.35;59.12;96842.31;4995445;28;20104;-64
2021/09/08 06:06:35;;;;;;;13.60;9.10;;;;;;;20.14;57.27;96840.97;5000614;28;20132;-64
2021/09/08 06:09:00;;;;;;;15.13;9.38;;;;;;;21.06;54.04;96842.25;5003730;28;20038;-64
2021/09/08 06:11:26;;;;;;;18.10;10.50;;;;;;;21.71;51.72;96835.91;4989130;28;20482;-65
2021/09/08 06:13:53;;;;;;;14.70;9.07;;;;;;;22.22;50.15;96833.38;5002510;28;20046;-64
2021/09/08 06:16:20;;;;;;;16.42;10.25;;;;;;;22.74;48.81;96831.50;5019148;28;20319;-65
2021/09/08 06:18:46;;;;;;;17.20;9.50;;;;;;;22.86;47.50;96832.75;4999232;28;20200;-62
2021/09/08 06:21:11;;;;;;;15.75;10.38;;;;;;;22.86;48.82;96830.72;4998022;28;20136;-63
2021/09/08 06:23:36;;;;;;;19.55;11.75;;;;;;;22.45;48.87;96829.53;4997951;28;20038;-65
2021/09/08 06:26:02;;;;;;;18.08;11.63;;;;;;;23.38;47.32;96825.94;4997984;28;20077;-64
2021/09/08 06:28:27;;;;;;;17.48;11.30;;;;;;;23.01;47.29;96831.09;5002273;28;20069;-65
2021/09/08 06:30:53;;;;;;;16.10;10.65;;;;;;;23.81;46.71;96826.56;5020882;28;20113;-67
2021/09/08 06:33:18;;;;;;;19.10;10.63;;;;;;;24.89;43.73;96826.25;5000375;28;20049;-64
2021/09/08 06:35:44;;;;;;;20.85;11.63;;;;;;;24.67;43.15;96829.09;5002735;28;20046;-64
2021/09/08 06:38:09;;;;;;;25.95;14.98;;;;;;;23.54;46.23;96822.25;4994232;28;20081;-64
2021/09/08 06:40:34;;;;;;;28.38;16.48;;;;;;;24.27;45.23;96834.56;5001202;28;20084;-64
2021/09/08 06:43:00;;;;;;;28.52;15.73;;;;;;;22.93;48.18;96829.72;5001755;28;20449;-65
2021/09/08 06:45:25;;;;;;;21.65;15.27;;;;;;;22.22;50.11;96835.34;4995943;28;20622;-64
2021/09/08 06:47:51;;;;;;;28.55;16.27;;;;;;;21.55;52.20;96831.13;4988047;28;20037;-65
2021/09/08 06:50:17;;;;;;;22.35;15.43;;;;;;;21.79;52.04;96836.50;4984644;28;20034;-62
2021/09/08 06:52:42;;;;;;;23.48;14.55;;;;;;;22.23;50.39;96834.13;4999834;28;20104;-64
2021/09/08 06:55:08;;;;;;;23.13;13.80;;;;;;;21.86;52.10;96828.75;4996127;28;20041;-64
2021/09/08 06:57:33;;;;;;;21.92;13.95;;;;;;;22.82;49.61;96820.91;4990069;28;20053;-64
2021/09/08 06:59:59;;;;;;;24.77;14.75;;;;;;;21.73;52.16;96827.91;5002074;28;20145;-63
2021/09/08 07:02:24;;;;;;;22.25;14.93;;;;;;;21.06;54.88;96825.53;4993606;28;20042;-64
2021/09/08 07:04:50;;;;;;;25.75;13.05;;;;;;;22.67;51.50;96823.31;4999901;28;20099;-63
2021/09/08 07:07:15;;;;;;;17.95;12.18;;;;;;;24.22;45.86;96822.72;4987579;28;20065;-63
2021/09/08 07:09:40;;;;;;;15.05;10.93;;;;;;;25.91;42.83;96818.16;4992884;28;20135;-63
2021/09/08 07:12:07;;;;;;;17.02;10.95;;;;;;;25.82;42.38;96821.75;4995201;28;20044;-64
2021/09/08 07:14:33;;;;;;;21.60;12.82;;;;;;;24.26;45.31;96821.81;4989228;28;20561;-64
2021/09/08 07:16:58;;;;;;;20.73;12.38;;;;;;;21.95;51.22;96814.97;4991958;28;20140;-64
2021/09/08 07:19:24;;;;;;;19.85;12.10;;;;;;;24.38;46.34;96830.13;4986536;28;20046;-64
2021/09/08 07:21:49;;;;;;;17.08;12.07;;;;;;;25.58;43.23;96824.34;4996635;28;20100;-64
2021/09/08 07:24:15;;;;;;;17.55;10.77;;;;;;;25.60;42.24;96824.66;4984611;28;20042;-65
2021/09/08 07:26:40;;;;;;;17.92;11.38;;;;;;;25.30;42.83;96831.88;5000727;28;20479;-64
2021/09/08 07:29:06;;;;;;;17.13;11.30;;;;;;;25.78;42.30;96821.09;4995910;28;20049;-65
2021/09/08 07:31:31;;;;;;;16.40;11.88;;;;;;;25.67;43.08;96815.16;4999836;28;20564;-64
2021/09/08 07:33:57;;;;;;;19.65;12.32;;;;;;;25.40;42.94;96818.69;5002086;28;20050;-64
2021/09/08 07:36:24;;;;;;;17.27;11.02;;;;;;;25.78;42.38;96809.09;4985929;28;20137;-65
2021/09/08 07:38:50;;;;;;;16.85;11.98;;;;;;;25.27;44.06;96816.00;5004963;28;20038;-65
2021/09/08 07:41:20;;;;;;;16.90;12.23;;;;;;;25.60;41.99;96810.63;5000782;28;20112;-65
2021/09/08 07:43:46;;;;;;;18.67;12.40;;;;;;;25.01;43.54;96813.38;4999812;28;20604;-65
2021/09/08 07:46:12;;;;;;;18.98;13.50;;;;;;;22.10;51.21;96817.38;4996577;28;20509;-64
2021/09/08 07:48:39;;;;;;;19.85;13.07;;;;;;;21.94;52.89;96807.81;5001056;28;20038;-65
2021/09/08 07:51:06;;;;;;;16.95;12.30;;;;;;;23.55;49.17;96803.44;4995547;28;20494;-65
2021/09/08 07:53:32;;;;;;;20.13;12.25;;;;;;;25.49;44.45;96796.28;5000748;28;20050;-64
2021/09/08 07:55:58;;;;;;;18.52;12.90;;;;;;;26.82;40.12;96796.88;5000843;28;20064;-65
2021/09/08 07:58:23;;;;;;;21.27;13.15;;;;;;;24.62;44.55;96798.91;4994480;28;20955;-65
2021/09/08 08:00:49;;;;;;;19.13;11.90;;;;;;;26.41;41.17;96801.16;4999905;28;20066;-63
2021/09/08 08:03:14;;;;;;;16.58;10.63;;;;;;;27.94;38.45;96797.09;4994006;28;20089;-64
2021/09/08 08:05:39;;;;;;;19.73;12.63;;;;;;;25.37;43.46;96800.75;5000601;28;20041;-63
2021/09/08 08:08:05;;;;;;;21.60;12.68;;;;;;;23.40;48.98;96800.34;4993431;28;20517;-67
2021/09/08 08:10:31;;;;;;;18.92;12.68;;;;;;;20.99;55.65;96798.63;4997644;28;20057;-65
2021/09/08 08:12:57;;;;;;;20.45;13.13;;;;;;;20.59;57.04;96805.06;5001083;28;20046;-65
2021/09/08 08:15:23;;;;;;;19.77;11.60;;;;;;;23.90;48.45;96795.09;4995960;28;20123;-65
2021/09/08 08:17:49;;;;;;;22.35;12.40;;;;;;;22.61;51.37;96792.41;5003256;28;20050;-64
2021/09/08 08:20:15;;;;;;;22.23;12.07;;;;;;;22.74;51.37;96788.84;4997012;28;20092;-64
2021/09/08 08:22:41;;;;;;;25.63;12.95;;;;;;;22.39;52.17;96792.25;5003713;28;20038;-64
2021/09/08 08:25:10;;;;;;;17.65;12.50;;;;;;;22.81;51.53;96786.59;4998608;28;20046;-65
2021/09/08 08:27:36;;;;;;;17.17;11.57;;;;;;;22.07;52.71;96791.13;5004065;28;20046;-64
2021/09/08 08:30:04;;;;;;;15.13;10.73;;;;;;;23.90;49.17;96797.91;5002367;28;20038;-64
2021/09/08 08:32:29;;;;;;;16.50;10.80;;;;;;;26.36;42.26;96784.94;5000522;28;20042;-64
2021/09/08 08:34:54;;;;;;;14.80;9.82;;;;;;;26.70;41.05;96783.81;5013527;28;20065;-64
2021/09/08 08:37:20;;;;;;;17.00;9.75;;;;;;;27.68;39.06;96794.75;5013090;28;20470;-66
2021/09/08 08:39:46;;;;;;;20.45;11.05;;;;;;;27.87;38.41;96789.75;5005721;28;20192;-65
2021/09/08 08:42:20;;;;;;;16.73;10.55;;;;;;;26.85;39.82;96790.31;4999766;28;20395;-65
2021/09/08 08:44:49;;;;;;;17.40;11.93;;;;;;;24.15;46.04;96792.19;5003393;28;20048;-65
2021/09/08 08:47:15;;;;;;;16.30;10.07;;;;;;;24.89;45.42;96792.66;4996685;28;20437;-65
2021/09/08 08:49:41;;;;;;;14.35;9.88;;;;;;;26.50;41.82;96785.06;5002204;28;20133;-64
2021/09/08 08:52:06;;;;;;;12.30;8.40;;;;;;;27.85;38.95;96790.25;4998527;28;20045;-64
2021/09/08 08:54:32;;;;;;;15.05;9.98;;;;;;;27.45;39.51;96787.88;5002301;28;20491;-65
2021/09/08 08:56:57;;;;;;;14.82;8.75;;;;;;;28.27;38.43;96785.72;5002961;28;20509;-66
2021/09/08 08:59:23;;;;;;;13.63;9.00;;;;;;;28.66;37.81;96787.69;4998142;28;20131;-65
2021/09/08 09:01:48;;;;;;;20.50;9.82;;;;;;;28.65;37.85;96786.94;5002678;28;20498;-65
2021/09/08 09:04:14;;;;;;;13.82;9.18;;;;;;;28.82;36.89;96780.78;4995857;28;20125;-65
2021/09/08 09:06:42;;;;;;;17.00;10.10;;;;;;;28.46;38.60;96777.09;5002872;28;20141;-65
2021/09/08 09:09:18;;;;;;;12.65;8.70;;;;;;;27.60;39.50;96783.09;4997515;28;20534;-65
2021/09/08 09:11:47;;;;;;;17.92;9.68;;;;;;;26.82;41.59;96774.41;5001325;28;20057;-66
2021/09/08 09:14:14;;;;;;;17.50;9.48;;;;;;;26.82;42.44;96765.19;4991435;28;20049;-66
2021/09/08 09:16:41;;;;;;;14.77;8.73;;;;;;;27.95;40.21;96765.66;5002392;28;20061;-64
2021/09/08 09:19:09;;;;;;;12.80;8.60;;;;;;;27.98;39.80;96761.09;4996300;28;20046;-63
2021/09/08 09:21:35;;;;;;;16.25;11.13;;;;;;;24.94;46.59;96764.03;5000091;28;20042;-65
2021/09/08 09:24:03;;;;;;;16.17;11.25;;;;;;;24.51;47.67;96768.47;5004218;28;20053;-64
2021/09/08 09:26:31;;;;;;;15.52;9.43;;;;;;;26.17;45.46;96762.53;5003856;28;20052;-64
2021/09/08 09:29:16;;;;;;;16.70;10.63;;;;;;;27.20;43.13;96752.53;5003959;28;20041;-64
2021/09/08 09:31:56;;;;;;;15.82;10.32;;;;;;;25.94;46.11;96755.53;5011719;28;20038;-65
2021/09/08 09:34:23;;;;;;;15.70;9.32;;;;;;;26.73;44.86;96754.00;5013727;28;20061;-63
2021/09/08 09:36:57;;;;;;;16.15;9.95;;;;;;;26.27;45.46;96761.28;5012801;28;20046;-64
2021/09/08 09:39:27;;;;;;;16.00;10.82;;;;;;;25.96;45.84;96755.06;5012197;28;20278;-64
2021/09/08 09:41:53;;;;;;;19.42;11.02;;;;;;;26.33;44.90;96750.19;5000575;28;20132;-64
2021/09/08 09:44:18;;;;;;;16.60;11.18;;;;;;;26.31;44.87;96750.66;4997660;28;20531;-64
2021/09/08 09:46:46;;;;;;;21.67;10.45;;;;;;;26.31;45.67;96750.66;5002710;28;20157;-64
2021/09/08 09:49:13;;;;;;;18.10;10.25;;;;;;;26.07;46.38;96744.13;5000621;28;20042;-64
2021/09/08 09:51:39;;;;;;;18.30;10.10;;;;;;;26.66;44.52;96741.81;5005569;28;20117;-64
2021/09/08 09:54:05;;;;;;;16.20;10.45;;;;;;;26.95;44.37;96739.69;4998514;28;20101;-63
2021/09/08 09:56:30;;;;;;;16.23;9.75;;;;;;;26.24;45.69;96741.78;5000738;28;20456;-64
2021/09/08 09:58:56;;;;;;;17.30;10.88;;;;;;;25.60;48.00;96737.72;5004756;28;20042;-64
2021/09/08 10:01:22;;;;;;;23.17;11.88;;;;;;;24.32;50.64;96736.78;4997530;28;21002;-64
2021/09/08 10:03:47;;;;;;;19.52;11.50;;;;;;;25.65;47.36;96728.69;5006886;28;20053;-64
2021/09/08 10:06:14;;;;;;;14.23;9.82;;;;;;;25.88;47.01;96729.31;5005217;28;20049;-65
2021/09/08 10:08:49;;;;;;;17.15;11.13;;;;;;;25.58;47.17;96719.81;5029230;28;20073;-64
2021/09/08 10:11:24;;;;;;;15.23;9.60;;;;;;;25.79;46.28;96716.06;5010421;28;20042;-64
2021/09/08 10:13:57;;;;;;;14.55;8.95;;;;;;;26.15;46.42;96717.31;5001227;28;20053;-66
2021/09/08 10:16:23;;;;;;;15.30;9.98;;;;;;;27.07;43.69;96708.56;4997522;28;20234;-65
2021/09/08 10:18:49;;;;;;;16.65;9.65;;;;;;;27.27;43.78;96701.59;5002070;28;20849;-65
2021/09/08 10:21:19;;;;;;;14.95;10.10;;;;;;;27.90;42.77;96710.03;4994581;28;20080;-68
2021/09/08 10:23:59;;;;;;;;;;;;;;;27.24;43.85;96706.13;5010447;28;20042;-65
2021/09/08 10:26:30;;;;;;;17.10;10.73;;;;;;;27.96;41.66;96704.50;5002231;28;19921;-64
2021/09/08 10:29:07;;;;;;;13.90;9.45;;;;;;;27.79;42.13;96704.94;5003981;28;20069;-64
2021/09/08 10:31:40;;;;;;;15.15;8.77;;;;;;;28.19;41.51;96698.03;4997173;28;20141;-64
2021/09/08 10:34:06;;;;;;;15.68;9.70;;;;;;;28.10;41.84;96692.47;4991621;28;20053;-65
2021/09/08 10:36:34;;;;;;;15.05;9.35;;;;;;;27.79;42.36;96693.69;5007636;28;20050;-65
2021/09/08 10:39:11;;;;;;;13.63;8.57;;;;;;;27.93;41.61;96686.56;5017289;28;20034;-64
2021/09/08 10:41:51;;;;;;;16.88;9.77;;;;;;;23.05;53.88;96688.56;5005846;28;20056;-64
2021/09/08 10:44:40;;;;;;;15.70;10.15;;;;;;;24.36;51.29;96683.47;4991091;28;20127;-66
2021/09/08 10:47:06;;;;;;;14.85;8.65;;;;;;;24.72;51.39;96682.88;5000294;28;20049;-65
2021/09/08 10:49:38;;;;;;;15.50;10.32;;;;;;;25.38;49.43;96673.38;5001847;28;20449;-66
2021/09/08 10:52:05;;;;;;;18.45;9.80;;;;;;;25.12;49.35;96670.03;5013611;28;20430;-66
2021/09/08 10:54:31;;;;;;;13.55;9.70;;;;;;;26.65;45.69;96672.88;5021356;28;20052;-65
2021/09/08 10:56:56;;;;;;;14.25;9.80;;;;;;;26.16;47.37;96662.72;5006117;28;20557;-65
2021/09/08 10:59:22;;;;;;;11.93;7.97;;;;;;;26.53;47.24;96668.22;4995684;28;20060;-64
2021/09/08 11:01:52;;;;;;;13.70;8.48;;;;;;;27.31;44.78;96662.81;5002415;28;20046;-65
2021/09/08 11:04:17;;;;;;;14.65;9.80;;;;;;;26.61;47.14;96660.25;5001374;28;20155;-65
2021/09/08 11:06:46;;;;;;;12.07;8.55;;;;;;;26.40;47.75;96653.59;5001702;28;20501;-65
2021/09/08 11:09:17;;;;;;;14.57;10.33;;;;;;;26.38;48.17;96651.28;5004866;28;20192;-65
2021/09/08 11:11:58;;;;;;;17.30;9.70;;;;;;;26.08;48.13;96651.03;5000503;28;20054;-65
2021/09/08 11:14:52;;;;;;;12.93;9.13;;;;;;;26.37;48.12;96646.13;4992312;28;20531;-64
2021/09/08 11:17:18;;;;;;;12.65;9.02;;;;;;;25.81;49.15;96646.25;4994409;28;20061;-66